createdAt,value
2023-04-18T00:01:26.850Z,37.90
2023-04-18T00:03:54.660Z,37.50
2023-04-18T00:06:22.571Z,38.03
2023-04-18T00:08:50.319Z,39.88
2023-04-18T00:11:17.938Z,38.38
2023-04-18T00:13:47.503Z,38.90
2023-04-18T00:16:15.725Z,38.42
2023-04-18T00:18:43.397Z,35.97
2023-04-18T00:21:11.143Z,37.78
2023-04-18T00:23:39.828Z,37.40
2023-04-18T00:26:07.480Z,35.67
2023-04-18T00:28:35.205Z,34.85
2023-04-18T00:31:03.345Z,34.80
2023-04-18T00:33:32.724Z,34.58
2023-04-18T00:36:00.567Z,34.88
2023-04-18T00:38:28.326Z,34.65
2023-04-18T00:40:56.027Z,36.75
2023-04-18T00:43:24.777Z,36.03
2023-04-18T00:45:52.640Z,36.05
2023-04-18T00:48:21.135Z,33.80
2023-04-18T00:50:49.023Z,34.85
2023-04-18T00:53:16.910Z,35.55
2023-04-18T00:55:45.806Z,34.47
2023-04-18T00:58:14.228Z,33.15
2023-04-18T01:00:42.753Z,33.05
2023-04-18T01:03:14.515Z,32.92
2023-04-18T01:05:42.386Z,33.28
2023-04-18T01:08:10.718Z,35.03
2023-04-18T01:10:38.571Z,33.83
2023-04-18T01:13:19.509Z,33.67
2023-04-18T01:15:50.839Z,33.47
2023-04-18T01:18:19.267Z,33.08
2023-04-18T01:20:53.225Z,32.88
2023-04-18T01:23:21.410Z,32.22
2023-04-18T01:25:52.269Z,32.03
2023-04-18T01:28:22.981Z,31.38
2023-04-18T01:30:50.855Z,31.83
2023-04-18T01:33:18.653Z,29.80
2023-04-18T01:35:48.221Z,30.10
2023-04-18T01:38:15.933Z,29.85
2023-04-18T01:40:43.709Z,29.77
2023-04-18T01:43:11.479Z,29.45
2023-04-18T01:45:39.253Z,30.42
2023-04-18T01:48:07.001Z,30.48
2023-04-18T01:50:34.750Z,30.23
2023-04-18T01:53:02.374Z,29.98
2023-04-18T01:55:30.153Z,30.90
2023-04-18T01:57:57.874Z,30.55
2023-04-18T02:00:25.814Z,30.05
2023-04-18T02:02:53.564Z,31.35
2023-04-18T02:05:22.225Z,28.65
2023-04-18T02:07:50.373Z,28.75
2023-04-18T02:10:19.167Z,28.17
2023-04-18T02:12:47.024Z,30.83
2023-04-18T02:15:14.949Z,29.83
2023-04-18T02:17:42.684Z,31.63
2023-04-18T02:20:11.018Z,33.13
2023-04-18T02:22:39.538Z,31.67
2023-04-18T02:25:08.016Z,31.80
2023-04-18T02:27:35.736Z,31.27
2023-04-18T02:30:04.061Z,33.22
2023-04-18T02:32:35.024Z,33.10
2023-04-18T02:35:02.855Z,32.33
2023-04-18T02:37:30.484Z,33.67
2023-04-18T02:39:58.294Z,33.28
2023-04-18T02:42:30.778Z,34.00
2023-04-18T02:44:58.465Z,34.75
2023-04-18T02:47:26.180Z,30.92
2023-04-18T02:49:54.065Z,33.53
2023-04-18T02:52:21.762Z,34.38
2023-04-18T02:54:49.617Z,33.33
2023-04-18T02:57:22.004Z,32.80
2023-04-18T02:59:57.479Z,32.67
2023-04-18T03:02:43.533Z,34.17
2023-04-18T03:05:26.808Z,33.92
2023-04-18T03:07:58.162Z,33.38
2023-04-18T03:10:25.933Z,31.90
2023-04-18T03:12:53.707Z,33.58
2023-04-18T03:15:22.271Z,33.58
2023-04-18T03:17:51.287Z,33.55
2023-04-18T03:20:21.902Z,35.15
2023-04-18T03:22:49.652Z,35.20
2023-04-18T03:25:21.763Z,33.60
2023-04-18T03:27:54.195Z,35.75
2023-04-18T03:30:23.727Z,36.38
2023-04-18T03:32:56.406Z,34.33
2023-04-18T03:35:24.324Z,32.65
2023-04-18T03:37:52.236Z,34.97
2023-04-18T03:40:25.549Z,33.65
2023-04-18T03:42:56.332Z,35.55
2023-04-18T03:45:24.030Z,36.13
2023-04-18T03:47:51.756Z,33.55
2023-04-18T03:50:20.967Z,34.70
2023-04-18T03:52:50.299Z,32.60
2023-04-18T03:55:22.730Z,34.03
2023-04-18T03:57:51.544Z,34.35
2023-04-18T04:00:26.873Z,34.60
2023-04-18T04:03:07.072Z,31.90
2023-04-18T04:05:35.114Z,33.90
2023-04-18T04:08:02.805Z,32.10
2023-04-18T04:10:30.499Z,35.17
2023-04-18T04:12:59.155Z,33.58
2023-04-18T04:15:27.503Z,33.90
2023-04-18T04:18:06.577Z,34.45
2023-04-18T04:20:38.072Z,33.53
2023-04-18T04:23:13.810Z,33.28
2023-04-18T04:25:46.330Z,31.50
2023-04-18T04:28:41.393Z,30.90
2023-04-18T04:31:10.419Z,30.02
2023-04-18T04:33:39.414Z,29.90
2023-04-18T04:36:16.721Z,30.30
2023-04-18T04:38:47.823Z,30.10
2023-04-18T04:41:16.764Z,28.80
2023-04-18T04:43:46.614Z,27.80
2023-04-18T04:46:20.647Z,26.60
2023-04-18T04:48:51.403Z,26.00
2023-04-18T04:51:19.772Z,25.52
2023-04-18T04:53:47.524Z,26.30
2023-04-18T04:56:15.194Z,25.42
2023-04-18T04:58:43.428Z,24.60
2023-04-18T05:01:20.114Z,25.77
2023-04-18T05:03:48.069Z,23.15
2023-04-18T05:06:20.656Z,22.92
2023-04-18T05:08:49.316Z,22.92
2023-04-18T05:11:17.913Z,23.75
2023-04-18T05:13:45.561Z,21.60
2023-04-18T05:16:13.291Z,21.45
2023-04-18T05:18:41.536Z,21.25
2023-04-18T05:21:09.370Z,21.17
2023-04-18T05:23:37.156Z,20.73
2023-04-18T05:26:05.849Z,20.55
2023-04-18T05:28:33.617Z,20.67
2023-04-18T05:31:01.441Z,20.02
2023-04-18T05:33:32.544Z,20.13
2023-04-18T05:36:00.260Z,19.02
2023-04-18T05:38:27.967Z,19.83
2023-04-18T05:40:56.036Z,19.02
2023-04-18T05:43:23.834Z,19.50
2023-04-18T05:45:52.739Z,18.20
2023-04-18T05:48:21.500Z,17.63
2023-04-18T05:50:49.233Z,16.73
2023-04-18T05:53:16.915Z,16.42
2023-04-18T05:55:46.519Z,16.25
2023-04-18T05:58:14.990Z,17.10
2023-04-18T06:00:43.144Z,16.50
2023-04-18T06:03:11.288Z,16.63
2023-04-18T06:05:41.063Z,14.13
2023-04-18T06:08:08.933Z,14.38
2023-04-18T06:10:38.953Z,14.15
2023-04-18T06:13:07.161Z,13.77
2023-04-18T06:15:35.451Z,13.45
2023-04-18T06:18:03.215Z,13.65
2023-04-18T06:20:30.940Z,13.38
2023-04-18T06:22:58.669Z,11.93
2023-04-18T06:25:26.420Z,11.80
2023-04-18T06:27:54.113Z,12.30
2023-04-18T06:30:22.260Z,11.50
2023-04-18T06:32:50.053Z,11.55
2023-04-18T06:35:18.020Z,10.65
2023-04-18T06:37:46.005Z,10.68
2023-04-18T06:40:13.945Z,10.98
2023-04-18T06:42:43.521Z,10.95
2023-04-18T06:45:12.163Z,11.13
2023-04-18T06:47:41.228Z,10.85
2023-04-18T06:50:09.741Z,10.68
2023-04-18T06:52:40.613Z,10.40
2023-04-18T06:55:09.412Z,10.63
2023-04-18T06:57:38.285Z,9.88
2023-04-18T07:00:07.053Z,9.88
2023-04-18T07:02:37.829Z,10.20
2023-04-18T07:05:07.130Z,9.95
2023-04-18T07:07:35.433Z,9.48
2023-04-18T07:10:03.517Z,9.25
2023-04-18T07:12:31.249Z,8.85
2023-04-18T07:14:58.907Z,9.77
2023-04-18T07:17:26.637Z,9.00
2023-04-18T07:19:54.326Z,9.68
2023-04-18T07:22:22.009Z,8.88
2023-04-18T07:24:49.755Z,9.18
2023-04-18T07:27:17.462Z,8.40
2023-04-18T07:29:45.390Z,7.90
2023-04-18T07:32:13.174Z,8.43
2023-04-18T07:34:41.479Z,8.35
2023-04-18T07:37:09.257Z,8.13
2023-04-18T07:39:36.992Z,7.57
2023-04-18T07:42:05.048Z,7.90
2023-04-18T07:44:35.200Z,8.35
2023-04-18T07:47:04.062Z,7.85
2023-04-18T07:49:31.665Z,7.57
2023-04-18T07:51:59.302Z,7.60
2023-04-18T07:54:27.014Z,7.05
2023-04-18T07:56:54.641Z,7.10
2023-04-18T07:59:22.591Z,7.95
2023-04-18T08:01:50.326Z,7.10
2023-04-18T08:04:18.129Z,7.65
2023-04-18T08:06:45.871Z,8.23
2023-04-18T08:09:13.867Z,7.38
2023-04-18T08:11:42.889Z,7.75
2023-04-18T08:14:10.531Z,8.20
2023-04-18T08:16:38.811Z,7.57
2023-04-18T08:19:06.561Z,7.95
2023-04-18T08:21:34.390Z,7.60
2023-04-18T08:24:02.151Z,7.93
2023-04-18T08:26:29.787Z,8.85
2023-04-18T08:28:57.744Z,7.90
2023-04-18T08:31:25.954Z,7.88
2023-04-18T08:33:53.628Z,8.25
2023-04-18T08:36:21.506Z,8.40
2023-04-18T08:38:49.194Z,8.88
2023-04-18T08:41:24.800Z,8.02
2023-04-18T08:43:53.429Z,8.07
2023-04-18T08:46:22.799Z,8.50
2023-04-18T08:48:51.386Z,9.13
2023-04-18T08:51:19.218Z,9.20
2023-04-18T08:53:48.350Z,8.90
2023-04-18T08:56:16.555Z,9.13
2023-04-18T08:58:45.202Z,8.43
2023-04-18T09:01:15.114Z,8.90
2023-04-18T09:03:44.216Z,9.05
2023-04-18T09:06:19.343Z,9.50
2023-04-18T09:09:10.679Z,9.18
2023-04-18T09:11:38.415Z,8.88
2023-04-18T09:14:06.191Z,8.75
2023-04-18T09:16:50.596Z,9.48
2023-04-18T09:19:18.798Z,9.45
2023-04-18T09:21:47.207Z,9.90
2023-04-18T09:24:28.477Z,9.80
2023-04-18T09:26:59.753Z,10.43
2023-04-18T09:29:47.273Z,10.55
2023-04-18T09:32:30.733Z,9.32
2023-04-18T09:35:03.938Z,10.00
2023-04-18T09:37:32.262Z,10.27
2023-04-18T09:39:59.905Z,10.90
2023-04-18T09:42:36.201Z,10.95
2023-04-18T09:45:08.459Z,10.88
2023-04-18T09:47:37.543Z,11.63
2023-04-18T09:50:08.184Z,11.38
2023-04-18T09:52:42.123Z,11.13
2023-04-18T09:55:17.215Z,12.82
2023-04-18T09:57:47.994Z,12.07
2023-04-18T10:00:26.671Z,11.35
2023-04-18T10:03:01.425Z,11.20
2023-04-18T10:05:34.936Z,13.00
2023-04-18T10:08:03.815Z,13.57
2023-04-18T10:10:32.691Z,13.45
2023-04-18T10:13:02.615Z,14.68
2023-04-18T10:15:31.919Z,14.70
2023-04-18T10:18:05.094Z,15.32
2023-04-18T10:20:35.350Z,16.27
2023-04-18T10:23:28.348Z,15.20
2023-04-18T10:25:56.256Z,15.90
2023-04-18T10:28:28.178Z,14.45
2023-04-18T10:31:05.053Z,15.27
2023-04-18T10:33:42.764Z,13.73
2023-04-18T10:36:11.608Z,13.05
2023-04-18T10:39:04.085Z,14.63
2023-04-18T10:41:34.287Z,12.70
2023-04-18T10:44:14.621Z,15.88
2023-04-18T10:46:48.598Z,16.75
2023-04-18T10:49:27.408Z,16.33
2023-04-18T10:52:01.231Z,16.08
2023-04-18T10:54:38.135Z,14.73
2023-04-18T10:57:08.970Z,16.00
2023-04-18T10:59:48.620Z,16.63
2023-04-18T11:02:26.437Z,15.98
2023-04-18T11:04:58.227Z,16.15
2023-04-18T11:07:38.243Z,16.23
2023-04-18T11:10:09.109Z,13.98
2023-04-18T11:12:41.491Z,14.32
2023-04-18T11:15:24.006Z,14.70
2023-04-18T11:18:03.501Z,14.73
2023-04-18T11:20:39.406Z,14.52
2023-04-18T11:23:25.525Z,15.80
2023-04-18T11:25:56.658Z,15.70
2023-04-18T11:28:27.568Z,15.93
2023-04-18T11:30:59.846Z,14.57
2023-04-18T11:33:29.364Z,14.95
2023-04-18T11:36:01.624Z,14.57
2023-04-18T11:38:30.964Z,16.00
2023-04-18T11:40:58.673Z,16.30
2023-04-18T11:43:26.577Z,16.30
2023-04-18T11:45:55.784Z,15.93
2023-04-18T11:48:24.928Z,16.33
2023-04-18T11:50:52.766Z,17.33
2023-04-18T11:53:41.270Z,16.05
2023-04-18T11:56:13.242Z,17.52
2023-04-18T11:58:42.244Z,17.85
2023-04-18T12:01:21.841Z,16.63
2023-04-18T12:04:07.895Z,15.55
2023-04-18T12:06:50.365Z,16.40
2023-04-18T12:09:19.064Z,18.08
2023-04-18T12:12:04.022Z,17.50
2023-04-18T12:14:31.746Z,17.92
2023-04-18T12:16:59.417Z,16.58
2023-04-18T12:19:28.484Z,16.15
2023-04-18T12:22:05.314Z,15.32
2023-04-18T12:24:33.779Z,14.80
2023-04-18T12:27:01.894Z,14.55
2023-04-18T12:29:29.916Z,14.93
2023-04-18T12:31:57.587Z,14.23
2023-04-18T12:34:25.428Z,14.85
2023-04-18T12:36:53.850Z,13.48
2023-04-18T12:39:21.567Z,13.52
2023-04-18T12:41:50.018Z,12.40
2023-04-18T12:44:17.821Z,12.52
2023-04-18T12:46:45.525Z,12.65
2023-04-18T12:49:13.330Z,12.90
2023-04-18T12:51:41.019Z,12.43
2023-04-18T12:54:09.009Z,12.32
2023-04-18T12:56:36.649Z,12.27
2023-04-18T12:59:04.510Z,11.57
2023-04-18T13:01:32.246Z,11.55
2023-04-18T13:04:10.649Z,11.93
2023-04-18T13:06:40.859Z,12.00
2023-04-18T13:09:09.287Z,11.50
2023-04-18T13:11:36.924Z,10.55
2023-04-18T13:14:04.663Z,10.55
2023-04-18T13:16:32.404Z,10.40
2023-04-18T13:19:00.169Z,9.25
2023-04-18T13:21:28.282Z,9.43
2023-04-18T13:23:55.924Z,9.30
2023-04-18T13:26:23.955Z,9.32
2023-04-18T13:28:51.720Z,8.77
2023-04-18T13:31:19.441Z,8.65
2023-04-18T13:33:47.175Z,8.38
2023-04-18T13:36:14.839Z,8.35
2023-04-18T13:38:43.541Z,8.50
2023-04-18T13:41:13.365Z,8.82
2023-04-18T13:43:41.518Z,8.25
2023-04-18T13:46:09.270Z,9.10
2023-04-18T13:48:36.956Z,8.13
2023-04-18T13:51:04.870Z,8.18
2023-04-18T13:53:32.596Z,8.77
2023-04-18T13:56:01.722Z,8.60
2023-04-18T13:58:29.692Z,8.50
2023-04-18T14:00:57.320Z,8.52
2023-04-18T14:03:25.266Z,8.38
2023-04-18T14:05:53.179Z,8.70
2023-04-18T14:08:21.057Z,8.05
2023-04-18T14:10:48.736Z,8.63
2023-04-18T14:13:16.715Z,7.70
2023-04-18T14:15:44.395Z,8.18
2023-04-18T14:18:12.100Z,7.47
2023-04-18T14:20:39.961Z,7.18
2023-04-18T14:23:07.650Z,7.70
2023-04-18T14:25:35.322Z,6.97
2023-04-18T14:28:11.168Z,7.10
2023-04-18T14:30:40.305Z,6.88
2023-04-18T14:33:09.632Z,5.85
2023-04-18T14:35:37.672Z,6.85
2023-04-18T14:38:05.390Z,7.47
2023-04-18T14:40:33.366Z,6.93
2023-04-18T14:43:01.244Z,7.28
2023-04-18T14:45:32.285Z,7.00
2023-04-18T14:48:01.121Z,7.78
2023-04-18T14:50:28.906Z,7.32
2023-04-18T14:52:56.638Z,7.57
2023-04-18T14:55:24.379Z,7.78
2023-04-18T14:57:52.185Z,7.90
2023-04-18T15:00:20.400Z,8.43
2023-04-18T15:02:48.362Z,7.72
2023-04-18T15:05:17.826Z,8.15
2023-04-18T15:07:45.548Z,8.57
2023-04-18T15:10:13.774Z,8.93
2023-04-18T15:12:44.171Z,9.43
2023-04-18T15:15:11.920Z,9.00
2023-04-18T15:17:39.858Z,11.05
2023-04-18T15:20:08.489Z,9.32
2023-04-18T15:22:37.042Z,9.30
2023-04-18T15:25:07.192Z,8.90
2023-04-18T15:27:35.024Z,10.13
2023-04-18T15:30:03.692Z,10.00
2023-04-18T15:32:32.721Z,10.65
2023-04-18T15:35:00.584Z,10.75
2023-04-18T15:37:28.333Z,11.02
2023-04-18T15:39:57.083Z,11.40
2023-04-18T15:42:24.936Z,11.32
2023-04-18T15:44:52.650Z,11.60
2023-04-18T15:47:20.525Z,11.63
2023-04-18T15:49:48.244Z,11.80
2023-04-18T15:52:16.036Z,11.57
2023-04-18T15:54:44.076Z,12.30
2023-04-18T15:57:11.846Z,11.90
2023-04-18T15:59:39.535Z,12.73
2023-04-18T16:02:08.921Z,12.80
2023-04-18T16:04:36.932Z,12.27
2023-04-18T16:07:04.919Z,12.43
2023-04-18T16:09:32.684Z,12.90
2023-04-18T16:12:01.686Z,12.52
2023-04-18T16:14:29.562Z,13.75
2023-04-18T16:17:00.269Z,14.15
2023-04-18T16:19:28.009Z,13.85
2023-04-18T16:21:55.684Z,13.30
2023-04-18T16:24:25.537Z,13.60
2023-04-18T16:26:53.646Z,14.23
2023-04-18T16:29:21.268Z,14.10
2023-04-18T16:31:49.060Z,13.93
2023-04-18T16:34:17.159Z,13.82
2023-04-18T16:36:44.842Z,13.00
2023-04-18T16:39:12.919Z,13.93
2023-04-18T16:41:40.568Z,13.77
2023-04-18T16:44:08.224Z,13.00
2023-04-18T16:46:36.091Z,13.32
2023-04-18T16:49:03.866Z,13.10
2023-04-18T16:51:31.730Z,13.32
2023-04-18T16:53:59.599Z,14.55
2023-04-18T16:56:27.346Z,13.95
2023-04-18T16:58:54.995Z,14.80
2023-04-18T17:01:22.726Z,13.80
2023-04-18T17:03:50.737Z,14.18
2023-04-18T17:06:19.500Z,14.23
2023-04-18T17:08:48.924Z,14.48
2023-04-18T17:11:16.632Z,14.75
2023-04-18T17:13:44.249Z,15.57
2023-04-18T17:16:11.976Z,14.02
2023-04-18T17:18:39.720Z,15.02
2023-04-18T17:21:07.412Z,15.15
2023-04-18T17:23:35.022Z,15.13
2023-04-18T17:26:02.723Z,15.60
2023-04-18T17:28:30.398Z,16.25
2023-04-18T17:30:58.581Z,15.40
2023-04-18T17:33:26.270Z,16.50
2023-04-18T17:35:54.161Z,16.45
2023-04-18T17:38:21.883Z,16.45
2023-04-18T17:40:58.588Z,16.67
2023-04-18T17:43:26.398Z,16.50
2023-04-18T17:45:55.943Z,15.80
2023-04-18T17:48:23.746Z,15.57
2023-04-18T17:50:51.433Z,16.30
2023-04-18T17:53:19.103Z,15.43
2023-04-18T17:55:49.127Z,16.55
2023-04-18T17:58:16.955Z,15.98
2023-04-18T18:00:44.592Z,16.75
2023-04-18T18:03:16.350Z,15.55
2023-04-18T18:05:49.304Z,16.70
2023-04-18T18:08:17.260Z,16.17
2023-04-18T18:10:47.074Z,16.42
2023-04-18T18:13:15.219Z,16.67
2023-04-18T18:15:42.956Z,15.43
2023-04-18T18:18:11.461Z,16.70
2023-04-18T18:20:43.245Z,17.40
2023-04-18T18:23:11.119Z,17.02
2023-04-18T18:25:38.803Z,17.15
2023-04-18T18:28:07.320Z,17.15
2023-04-18T18:30:35.139Z,17.13
2023-04-18T18:33:03.582Z,17.48
2023-04-18T18:35:31.389Z,17.27
2023-04-18T18:37:59.176Z,17.08
2023-04-18T18:40:27.047Z,17.08
2023-04-18T18:42:56.646Z,17.67
2023-04-18T18:45:24.436Z,17.92
2023-04-18T18:47:52.091Z,18.13
2023-04-18T18:50:19.871Z,17.58
2023-04-18T18:52:47.659Z,17.08
2023-04-18T18:55:16.324Z,18.17
2023-04-18T18:57:44.219Z,17.85
2023-04-18T19:00:13.374Z,18.20
2023-04-18T19:02:41.340Z,18.15
2023-04-18T19:05:09.644Z,18.70
2023-04-18T19:07:37.257Z,18.30
2023-04-18T19:10:05.779Z,17.92
2023-04-18T19:12:33.990Z,17.23
2023-04-18T19:15:01.744Z,17.92
2023-04-18T19:17:29.529Z,17.85
2023-04-18T19:19:59.308Z,17.67
2023-04-18T19:22:28.184Z,18.40
2023-04-18T19:24:56.100Z,19.17
2023-04-18T19:27:23.780Z,19.45
2023-04-18T19:29:51.493Z,17.95
2023-04-18T19:32:19.131Z,19.05
2023-04-18T19:34:46.814Z,17.60
2023-04-18T19:37:14.422Z,17.70
2023-04-18T19:39:42.117Z,18.52
2023-04-18T19:42:10.386Z,19.38
2023-04-18T19:44:38.087Z,18.92
2023-04-18T19:47:05.827Z,18.85
2023-04-18T19:49:33.504Z,18.85
2023-04-18T19:52:01.161Z,18.48
2023-04-18T19:54:33.227Z,18.38
2023-04-18T19:57:01.570Z,17.83
2023-04-18T19:59:29.217Z,18.90
2023-04-18T20:01:58.605Z,19.02
2023-04-18T20:04:28.988Z,18.60
2023-04-18T20:06:57.249Z,18.83
2023-04-18T20:09:24.906Z,18.48
2023-04-18T20:11:54.340Z,18.33
2023-04-18T20:14:22.045Z,18.35
2023-04-18T20:16:49.948Z,18.38
2023-04-18T20:19:19.510Z,17.75
2023-04-18T20:21:47.262Z,18.52
2023-04-18T20:24:15.616Z,18.27
2023-04-18T20:26:43.494Z,18.52
2023-04-18T20:29:11.302Z,17.95
2023-04-18T20:31:42.221Z,18.52
2023-04-18T20:34:10.131Z,18.45
2023-04-18T20:36:41.552Z,17.83
2023-04-18T20:39:09.648Z,18.25
2023-04-18T20:41:37.253Z,18.77
2023-04-18T20:44:05.310Z,19.63
2023-04-18T20:46:33.274Z,19.08
2023-04-18T20:49:01.027Z,18.52
2023-04-18T20:51:29.562Z,18.80
2023-04-18T20:53:57.397Z,19.02
2023-04-18T20:56:25.016Z,18.92
2023-04-18T20:58:52.686Z,18.83
2023-04-18T21:01:21.410Z,18.40
2023-04-18T21:03:49.381Z,19.02
2023-04-18T21:06:19.142Z,18.60
2023-04-18T21:08:46.800Z,18.58
2023-04-18T21:11:14.659Z,19.00
2023-04-18T21:13:42.431Z,19.55
2023-04-18T21:16:10.845Z,19.40
2023-04-18T21:18:38.641Z,18.80
2023-04-18T21:21:07.487Z,19.08
2023-04-18T21:23:42.875Z,18.20
2023-04-18T21:26:13.219Z,19.52
2023-04-18T21:29:01.830Z,18.38
2023-04-18T21:31:33.637Z,18.27
2023-04-18T21:34:04.458Z,19.17
2023-04-18T21:36:32.561Z,18.77
2023-04-18T21:39:01.323Z,17.67
2023-04-18T21:41:29.285Z,17.75
2023-04-18T21:43:57.106Z,19.75
2023-04-18T21:46:25.535Z,18.60
2023-04-18T21:48:53.291Z,18.45
2023-04-18T21:51:21.070Z,18.63
2023-04-18T21:53:48.880Z,18.27
2023-04-18T21:56:17.015Z,19.00
2023-04-18T21:58:44.862Z,18.52
2023-04-18T22:01:12.651Z,17.40
2023-04-18T22:03:40.921Z,17.90
2023-04-18T22:06:08.901Z,18.33
2023-04-18T22:08:36.688Z,19.10
2023-04-18T22:11:04.824Z,17.08
2023-04-18T22:13:35.695Z,19.02
2023-04-18T22:16:04.222Z,18.08
2023-04-18T22:18:36.826Z,17.98
2023-04-18T22:21:06.181Z,19.33
2023-04-18T22:23:33.873Z,18.63
2023-04-18T22:26:01.658Z,17.90
2023-04-18T22:28:29.402Z,17.67
2023-04-18T22:30:57.111Z,18.35
2023-04-18T22:33:25.402Z,17.20
2023-04-18T22:35:53.227Z,17.67
2023-04-18T22:38:20.885Z,17.70
2023-04-18T22:40:48.752Z,17.77
2023-04-18T22:43:16.952Z,18.27
2023-04-18T22:45:46.092Z,18.25
2023-04-18T22:48:13.889Z,16.38
2023-04-18T22:50:44.154Z,17.80
2023-04-18T22:53:12.704Z,16.83
2023-04-18T22:55:42.403Z,18.40
2023-04-18T22:58:11.364Z,17.02
2023-04-18T23:00:39.200Z,17.15
2023-04-18T23:03:07.038Z,16.52
2023-04-18T23:05:35.410Z,18.00
2023-04-18T23:08:03.266Z,17.48
2023-04-18T23:10:30.997Z,18.08
2023-04-18T23:12:58.804Z,18.75
2023-04-18T23:15:27.007Z,17.20
2023-04-18T23:17:54.681Z,17.25
2023-04-18T23:20:24.026Z,17.83
2023-04-18T23:22:52.821Z,18.40
2023-04-18T23:25:21.117Z,18.23
2023-04-18T23:27:48.820Z,18.58
2023-04-18T23:30:17.239Z,19.20
2023-04-18T23:32:44.929Z,19.08
2023-04-18T23:35:12.757Z,18.77
2023-04-18T23:37:42.147Z,17.70
2023-04-18T23:40:09.956Z,18.05
2023-04-18T23:42:37.865Z,18.08
2023-04-18T23:45:06.495Z,18.67
2023-04-18T23:47:34.152Z,19.38
2023-04-18T23:50:02.250Z,18.50
2023-04-18T23:52:29.965Z,18.88
2023-04-18T23:55:01.622Z,18.38
2023-04-18T23:57:29.408Z,19.60
2023-04-18T23:59:57.133Z,18.35
